createdAt,value
2022-10-13T04:04:30.683Z,100.00
2022-10-13T04:07:33.212Z,100.00
2022-10-13T04:10:39.908Z,100.00
2022-10-13T04:13:42.967Z,100.00
2022-10-13T04:16:45.106Z,100.00
2022-10-13T04:19:47.493Z,100.00
2022-10-13T04:22:49.701Z,100.00
2022-10-13T04:25:52.167Z,100.00
2022-10-13T04:28:55.345Z,100.00
2022-10-13T04:31:59.613Z,100.00
2022-10-13T04:35:01.636Z,100.00
2022-10-13T04:38:03.962Z,100.00
2022-10-13T04:41:07.231Z,100.00
2022-10-13T04:44:09.587Z,100.00
2022-10-13T04:47:11.642Z,100.00
2022-10-13T04:50:13.954Z,100.00
2022-10-13T04:53:19.151Z,100.00
2022-10-13T04:56:21.807Z,100.00
2022-10-13T04:59:23.874Z,100.00
2022-10-13T05:02:26.225Z,100.00
2022-10-13T05:05:28.699Z,100.00
2022-10-13T05:08:33.045Z,100.00
2022-10-13T05:11:35.101Z,100.00
2022-10-13T05:14:37.426Z,100.00
2022-10-13T05:17:42.728Z,100.00
2022-10-13T05:20:45.199Z,100.00
2022-10-13T05:23:47.899Z,100.00
2022-10-13T05:26:50.181Z,100.00
2022-10-13T05:29:52.225Z,100.00
2022-10-13T05:32:54.533Z,100.00
2022-10-13T05:36:06.743Z,100.00
2022-10-13T05:39:11.249Z,100.00
2022-10-13T05:42:13.337Z,100.00
2022-10-13T05:45:16.950Z,100.00
2022-10-13T05:48:18.969Z,100.00
2022-10-13T05:51:27.462Z,100.00
2022-10-13T05:54:42.184Z,100.00
2022-10-13T05:57:50.712Z,100.00
2022-10-13T06:00:55.222Z,100.00
2022-10-13T06:04:03.351Z,100.00
2022-10-13T06:07:05.991Z,100.00
2022-10-13T06:10:08.985Z,100.00
2022-10-13T06:13:11.535Z,100.00
2022-10-13T06:16:13.821Z,100.00
2022-10-13T06:19:15.848Z,100.00
2022-10-13T06:22:18.460Z,100.00
2022-10-13T06:25:21.025Z,100.00
2022-10-13T06:28:23.352Z,100.00
2022-10-13T06:31:25.469Z,100.00
2022-10-13T06:34:27.764Z,100.00
2022-10-13T06:37:29.891Z,100.00
2022-10-13T06:40:34.410Z,100.00
2022-10-13T06:43:40.500Z,100.00
2022-10-13T06:46:44.962Z,100.00
2022-10-13T06:49:47.213Z,100.00
2022-10-13T06:52:49.553Z,100.00
2022-10-13T06:55:52.574Z,100.00
2022-10-13T06:58:55.082Z,100.00
2022-10-13T07:01:57.394Z,100.00
2022-10-13T07:05:00.209Z,100.00
2022-10-13T07:08:02.360Z,100.00
2022-10-13T07:11:15.361Z,100.00
2022-10-13T07:14:17.878Z,100.00
2022-10-13T07:17:20.581Z,100.00
2022-10-13T07:20:24.256Z,100.00
2022-10-13T07:23:27.378Z,100.00
2022-10-13T07:26:29.628Z,100.00
2022-10-13T07:29:31.947Z,97.49
2022-10-13T07:32:34.018Z,92.74
2022-10-13T07:35:40.336Z,89.41
2022-10-13T07:38:42.808Z,90.56
2022-10-13T07:41:50.120Z,91.92
2022-10-13T07:44:53.063Z,89.73
2022-10-13T07:47:56.594Z,89.09
2022-10-13T07:50:58.955Z,88.74
2022-10-13T07:54:01.310Z,80.92
2022-10-13T07:57:03.616Z,80.72
2022-10-13T08:00:07.041Z,79.72
2022-10-13T08:03:14.261Z,80.56
2022-10-13T08:06:17.302Z,77.90
2022-10-13T08:09:19.381Z,76.37
2022-10-13T08:12:22.003Z,75.61
2022-10-13T08:15:24.757Z,75.07
2022-10-13T08:18:27.813Z,74.82
2022-10-13T08:24:52.464Z,70.47
2022-10-13T08:27:58.185Z,71.33
2022-10-13T08:31:02.746Z,71.37
2022-10-13T08:34:05.019Z,72.69
2022-10-13T08:37:13.738Z,69.96
2022-10-13T08:40:20.734Z,71.07
2022-10-13T08:43:24.254Z,71.42
2022-10-13T08:46:30.666Z,70.44
2022-10-13T08:49:33.043Z,66.77
2022-10-13T08:52:52.602Z,67.29
2022-10-13T08:56:15.147Z,66.18
2022-10-13T08:59:21.681Z,63.78
2022-10-13T09:02:29.986Z,64.82
2022-10-13T09:05:41.223Z,64.74
2022-10-13T09:09:18.254Z,65.57
2022-10-13T09:12:24.117Z,64.33
2022-10-13T09:15:26.477Z,63.04
2022-10-13T09:18:31.798Z,63.92
2022-10-13T09:21:34.129Z,63.54
2022-10-13T09:28:29.002Z,59.37
2022-10-13T09:31:33.060Z,60.54
2022-10-13T09:34:35.398Z,61.15
2022-10-13T09:37:40.923Z,61.08
2022-10-13T09:40:56.586Z,60.40
2022-10-13T09:44:03.258Z,61.65
2022-10-13T09:47:05.714Z,61.47
2022-10-13T09:50:26.950Z,64.29
2022-10-13T09:53:40.357Z,62.02
2022-10-13T09:56:49.158Z,63.43
2022-10-13T09:59:51.420Z,61.57
2022-10-13T10:03:12.286Z,60.50
2022-10-13T10:06:16.697Z,61.43
2022-10-13T10:09:38.694Z,61.23
2022-10-13T10:12:43.018Z,60.41
2022-10-13T10:15:53.697Z,60.79
2022-10-13T10:19:05.822Z,60.57
2022-10-13T10:22:10.887Z,59.72
2022-10-13T10:25:26.227Z,59.86
2022-10-13T10:28:53.323Z,59.05
2022-10-13T10:32:02.990Z,59.04
2022-10-13T10:35:31.126Z,60.43
2022-10-13T10:39:00.188Z,58.88
2022-10-13T10:42:39.136Z,58.37
2022-10-13T10:45:43.224Z,58.53
2022-10-13T10:48:47.034Z,58.87
2022-10-13T10:51:50.106Z,59.77
2022-10-13T10:55:17.490Z,60.92
2022-10-13T10:58:35.071Z,60.79
2022-10-13T11:02:01.078Z,61.26
2022-10-13T11:05:06.310Z,60.66
2022-10-13T11:08:26.847Z,60.15
2022-10-13T11:11:33.562Z,63.11
2022-10-13T11:14:39.494Z,60.34
2022-10-13T11:17:42.486Z,60.28
2022-10-13T11:20:44.423Z,61.09
2022-10-13T11:23:49.661Z,61.54
2022-10-13T11:26:51.918Z,61.78
2022-10-13T11:29:58.078Z,61.06
2022-10-13T11:33:09.022Z,60.49
2022-10-13T11:36:43.315Z,60.47
2022-10-13T11:40:01.009Z,59.06
2022-10-13T11:43:22.183Z,58.84
2022-10-13T11:46:30.420Z,59.31
2022-10-13T11:49:50.112Z,59.23
2022-10-13T11:53:00.982Z,60.67
2022-10-13T11:56:03.402Z,59.81
2022-10-13T11:59:05.493Z,58.98
2022-10-13T12:02:12.331Z,58.57
2022-10-13T12:05:41.078Z,58.19
2022-10-13T12:08:47.266Z,59.10
2022-10-13T12:11:57.347Z,58.57
2022-10-13T12:15:02.637Z,58.94
2022-10-13T12:18:24.218Z,58.71
2022-10-13T12:21:27.281Z,60.29
2022-10-13T12:24:30.463Z,59.67
2022-10-13T12:27:55.598Z,59.25
2022-10-13T12:31:05.468Z,59.03
2022-10-13T12:34:20.078Z,58.93
2022-10-13T12:38:08.502Z,59.37
2022-10-13T12:41:11.842Z,58.80
2022-10-13T12:44:23.894Z,57.83
2022-10-13T12:47:45.525Z,57.08
2022-10-13T12:50:48.715Z,57.98
2022-10-13T12:53:51.351Z,58.84
2022-10-13T12:56:57.414Z,60.06
2022-10-13T12:59:59.750Z,59.18
2022-10-13T13:03:05.104Z,58.73
2022-10-13T13:06:22.968Z,59.05
2022-10-13T13:09:42.294Z,58.22
2022-10-13T13:12:51.239Z,60.14
2022-10-13T13:15:58.254Z,59.61
2022-10-13T13:19:22.588Z,59.01
2022-10-13T13:22:25.319Z,59.40
2022-10-13T13:25:27.897Z,58.39
2022-10-13T13:28:35.798Z,58.42
2022-10-13T13:31:43.393Z,59.11
2022-10-13T13:34:49.730Z,59.02
2022-10-13T13:37:54.757Z,60.58
2022-10-13T13:41:03.083Z,59.13
2022-10-13T13:44:06.923Z,60.70
2022-10-13T13:47:29.162Z,61.32
2022-10-13T13:50:34.199Z,58.30
2022-10-13T13:53:36.760Z,57.21
2022-10-13T13:56:39.226Z,59.32
2022-10-13T13:59:41.821Z,60.30
2022-10-13T14:02:45.051Z,60.58
2022-10-13T14:05:47.381Z,60.81
2022-10-13T14:08:50.713Z,57.94
2022-10-13T14:11:53.461Z,59.01
2022-10-13T14:14:57.206Z,59.93
2022-10-13T14:18:01.056Z,61.51
2022-10-13T14:21:07.405Z,61.57
2022-10-13T14:24:10.713Z,61.74
2022-10-13T14:27:12.755Z,62.13
2022-10-13T14:30:15.158Z,62.08
2022-10-13T14:33:19.534Z,63.03
2022-10-13T14:36:22.000Z,62.29
2022-10-13T14:39:24.054Z,63.11
2022-10-13T14:42:26.350Z,63.15
2022-10-13T14:45:28.383Z,63.50
2022-10-13T14:48:31.870Z,64.76
2022-10-13T14:51:33.933Z,63.96
2022-10-13T14:54:38.149Z,64.93
2022-10-13T14:57:44.436Z,65.86
2022-10-13T15:00:48.317Z,65.88
2022-10-13T15:03:50.736Z,66.61
2022-10-13T15:06:53.129Z,66.95
2022-10-13T15:10:05.068Z,69.39
2022-10-13T15:13:08.342Z,70.74
2022-10-13T15:16:17.883Z,71.10
2022-10-13T15:19:20.208Z,72.60
2022-10-13T15:22:22.596Z,73.52
2022-10-13T15:25:25.246Z,74.86
